createdAt,value
2023-03-21T00:00:30.149Z,1.30
2023-03-21T00:02:33.976Z,1.42
2023-03-21T00:04:50.509Z,1.48
2023-03-21T00:06:56.379Z,1.48
2023-03-21T00:08:59.961Z,1.63
2023-03-21T00:11:04.636Z,1.70
2023-03-21T00:13:08.248Z,1.30
2023-03-21T00:15:14.297Z,1.20
2023-03-21T00:17:18.071Z,2.27
2023-03-21T00:19:22.181Z,1.23
2023-03-21T00:23:53.780Z,2.00
2023-03-21T00:25:57.542Z,2.10
2023-03-21T00:28:08.260Z,1.40
2023-03-21T00:30:13.758Z,1.95
2023-03-21T00:32:17.466Z,1.40
2023-03-21T00:34:31.695Z,1.88
2023-03-21T00:36:45.096Z,1.65
2023-03-21T00:38:48.841Z,1.53
2023-03-21T00:40:54.791Z,1.80
2023-03-21T00:42:58.477Z,1.50
2023-03-21T00:45:02.190Z,1.88
2023-03-21T00:47:07.736Z,1.65
2023-03-21T00:49:11.665Z,1.55
2023-03-21T00:51:16.640Z,2.00
2023-03-21T00:53:20.364Z,1.05
2023-03-21T00:55:23.950Z,1.73
2023-03-21T00:57:42.239Z,1.48
2023-03-21T00:59:45.936Z,2.38
2023-03-21T01:01:49.617Z,2.07
2023-03-21T01:04:03.576Z,2.00
2023-03-21T01:06:07.629Z,2.17
2023-03-21T01:08:24.473Z,1.95
2023-03-21T01:10:30.293Z,1.50
2023-03-21T01:12:35.526Z,1.00
2023-03-21T01:14:39.513Z,2.13
2023-03-21T01:16:43.168Z,1.50
2023-03-21T01:18:46.726Z,2.10
2023-03-21T01:20:50.857Z,1.53
2023-03-21T01:22:54.557Z,1.70
2023-03-21T01:25:08.791Z,1.70
2023-03-21T01:27:21.606Z,1.50
2023-03-21T01:29:26.548Z,1.20
2023-03-21T01:31:30.250Z,1.95
2023-03-21T01:33:34.311Z,1.60
2023-03-21T01:35:49.257Z,1.80
2023-03-21T01:37:55.268Z,1.58
2023-03-21T01:39:58.836Z,1.42
2023-03-21T01:42:02.357Z,1.92
2023-03-21T01:44:06.445Z,1.00
2023-03-21T01:46:22.706Z,1.80
2023-03-21T01:48:26.948Z,1.83
2023-03-21T01:50:30.861Z,1.73
2023-03-21T01:52:38.721Z,1.92
2023-03-21T01:54:43.104Z,2.13
2023-03-21T01:56:48.726Z,1.50
2023-03-21T01:58:55.212Z,1.90
2023-03-21T02:00:58.935Z,2.03
2023-03-21T02:03:15.262Z,2.97
2023-03-21T02:05:21.841Z,1.13
2023-03-21T02:07:28.899Z,1.52
2023-03-21T02:09:34.521Z,1.95
2023-03-21T02:11:39.763Z,1.75
2023-03-21T02:13:43.541Z,1.83
2023-03-21T02:15:49.140Z,1.73
2023-03-21T02:17:56.123Z,1.40
2023-03-21T02:20:22.275Z,1.30
2023-03-21T02:22:44.619Z,1.50
2023-03-21T02:25:13.358Z,1.40
2023-03-21T02:27:26.312Z,1.30
2023-03-21T02:29:38.286Z,1.60
2023-03-21T02:31:45.434Z,1.30
2023-03-21T02:34:03.853Z,2.97
2023-03-21T02:36:18.760Z,1.40
2023-03-21T02:38:26.142Z,1.25
2023-03-21T02:40:32.914Z,1.42
2023-03-21T02:42:39.429Z,1.83
2023-03-21T02:44:44.659Z,1.55
2023-03-21T02:47:02.882Z,1.65
2023-03-21T02:49:11.380Z,1.63
2023-03-21T02:51:17.855Z,1.30
2023-03-21T02:53:22.757Z,1.70
2023-03-21T02:55:28.961Z,1.67
2023-03-21T02:57:42.100Z,1.58
2023-03-21T02:59:55.571Z,2.08
2023-03-21T03:02:00.817Z,1.95
2023-03-21T03:04:04.570Z,1.90
2023-03-21T03:06:12.887Z,1.75
2023-03-21T03:08:35.774Z,1.98
2023-03-21T03:10:53.203Z,1.60
2023-03-21T03:13:02.615Z,1.95
2023-03-21T03:15:10.766Z,1.90
2023-03-21T03:17:24.227Z,1.90
2023-03-21T03:19:31.160Z,1.65
2023-03-21T03:21:40.296Z,2.40
2023-03-21T03:23:46.918Z,1.77
2023-03-21T03:25:55.215Z,2.20
2023-03-21T03:28:00.046Z,2.30
2023-03-21T03:30:05.231Z,1.90
2023-03-21T03:32:11.138Z,2.38
2023-03-21T03:34:16.664Z,2.15
2023-03-21T03:36:31.433Z,1.92
2023-03-21T03:38:36.809Z,1.45
2023-03-21T03:40:42.745Z,1.70
2023-03-21T03:42:50.621Z,1.85
2023-03-21T03:44:54.198Z,1.67
2023-03-21T03:47:03.621Z,1.52
2023-03-21T03:49:09.927Z,2.40
2023-03-21T03:51:16.290Z,1.63
2023-03-21T03:53:22.438Z,1.90
2023-03-21T03:55:28.330Z,2.35
2023-03-21T03:57:32.068Z,1.95
2023-03-21T03:59:38.078Z,1.80
2023-03-21T04:01:42.063Z,1.80
2023-03-21T04:03:50.455Z,2.13
2023-03-21T04:05:56.779Z,1.75
2023-03-21T04:08:02.278Z,1.77
2023-03-21T04:10:06.365Z,2.25
2023-03-21T04:12:09.969Z,2.00
2023-03-21T04:14:13.892Z,1.90
2023-03-21T04:16:19.429Z,1.92
2023-03-21T04:18:23.826Z,2.08
2023-03-21T04:20:43.358Z,1.92
2023-03-21T04:22:48.781Z,1.80
2023-03-21T04:24:53.294Z,1.75
2023-03-21T04:26:56.825Z,1.60
2023-03-21T04:29:01.385Z,2.00
2023-03-21T04:31:24.042Z,2.17
2023-03-21T04:33:30.076Z,1.95
2023-03-21T04:35:36.462Z,1.60
2023-03-21T04:37:41.615Z,2.00
2023-03-21T04:39:46.458Z,1.83
2023-03-21T04:41:50.299Z,2.25
2023-03-21T04:43:54.397Z,1.52
2023-03-21T04:45:58.136Z,2.92
2023-03-21T04:48:01.940Z,2.30
2023-03-21T04:50:07.515Z,2.33
2023-03-21T04:52:11.085Z,2.00
2023-03-21T04:56:17.703Z,2.20
2023-03-21T04:58:22.061Z,2.45
2023-03-21T05:00:25.773Z,2.00
2023-03-21T05:02:29.501Z,1.80
2023-03-21T05:04:33.210Z,1.27
2023-03-21T05:06:38.430Z,1.95
2023-03-21T05:08:41.917Z,2.05
2023-03-21T05:10:46.133Z,1.45
2023-03-21T05:12:49.734Z,2.20
2023-03-21T05:14:53.537Z,3.00
2023-03-21T05:16:57.784Z,2.30
2023-03-21T05:19:04.178Z,2.00
2023-03-21T05:21:10.754Z,2.33
2023-03-21T05:23:18.674Z,1.60
2023-03-21T05:25:35.668Z,1.90
2023-03-21T05:27:45.423Z,1.65
2023-03-21T05:29:49.097Z,1.60
2023-03-21T05:31:52.852Z,1.70
2023-03-21T05:33:56.905Z,1.90
2023-03-21T05:36:00.939Z,1.60
2023-03-21T05:38:04.607Z,1.95
2023-03-21T05:40:13.458Z,2.38
2023-03-21T05:42:18.585Z,1.60
2023-03-21T05:44:22.347Z,2.25
2023-03-21T05:46:26.308Z,1.90
2023-03-21T05:48:29.843Z,2.05
2023-03-21T05:50:33.692Z,2.17
2023-03-21T05:52:37.388Z,1.80
2023-03-21T05:54:41.098Z,2.00
2023-03-21T05:56:46.248Z,1.85
2023-03-21T05:58:49.799Z,1.88
2023-03-21T06:00:53.497Z,3.50
2023-03-21T06:02:57.338Z,1.90
2023-03-21T06:05:00.886Z,1.75
2023-03-21T06:07:04.418Z,1.33
2023-03-21T06:09:08.142Z,1.77
2023-03-21T06:11:16.726Z,1.98
2023-03-21T06:13:21.641Z,1.40
2023-03-21T06:15:26.681Z,1.65
2023-03-21T06:17:30.409Z,1.70
2023-03-21T06:19:34.087Z,1.40
2023-03-21T06:21:37.689Z,2.25
2023-03-21T06:23:41.482Z,2.20
2023-03-21T06:25:45.003Z,1.70
2023-03-21T06:27:48.764Z,1.45
2023-03-21T06:29:54.271Z,1.50
2023-03-21T06:31:57.782Z,1.92
2023-03-21T06:34:01.395Z,1.58
2023-03-21T06:36:05.240Z,2.00
2023-03-21T06:38:09.672Z,1.50
2023-03-21T06:40:13.959Z,1.63
2023-03-21T06:42:17.811Z,1.40
2023-03-21T06:44:22.133Z,1.35
2023-03-21T06:46:27.176Z,1.45
2023-03-21T06:48:31.982Z,1.75
2023-03-21T06:50:35.556Z,1.20
2023-03-21T06:52:39.512Z,1.90
2023-03-21T06:54:43.107Z,1.60
2023-03-21T06:56:46.837Z,1.80
2023-03-21T06:58:50.519Z,2.00
2023-03-21T07:00:54.243Z,1.67
2023-03-21T07:02:59.764Z,1.50
2023-03-21T07:05:03.553Z,2.40
2023-03-21T07:07:07.286Z,0.93
2023-03-21T07:09:10.994Z,1.20
2023-03-21T07:11:14.581Z,1.63
2023-03-21T07:13:18.867Z,1.30
2023-03-21T07:15:22.489Z,1.50
2023-03-21T07:17:26.161Z,0.90
2023-03-21T07:19:31.517Z,1.80
2023-03-21T07:21:35.055Z,1.40
2023-03-21T07:23:39.435Z,1.43
2023-03-21T07:25:42.981Z,1.30
2023-03-21T07:27:46.608Z,1.07
2023-03-21T07:29:50.629Z,0.90
2023-03-21T07:31:54.552Z,1.07
2023-03-21T07:33:58.129Z,1.43
2023-03-21T07:36:03.936Z,1.20
2023-03-21T07:38:07.763Z,1.23
2023-03-21T07:40:13.432Z,1.47
2023-03-21T07:42:17.048Z,0.87
2023-03-21T07:44:20.658Z,0.67
2023-03-21T07:46:24.316Z,1.07
2023-03-21T07:48:27.942Z,0.83
2023-03-21T07:50:31.674Z,1.10
2023-03-21T07:52:37.034Z,0.87
2023-03-21T07:54:40.631Z,0.93
2023-03-21T07:56:44.203Z,0.83
2023-03-21T07:58:47.831Z,0.80
2023-03-21T08:00:51.752Z,0.60
2023-03-21T08:02:58.749Z,0.70
2023-03-21T08:05:03.224Z,0.90
2023-03-21T08:07:06.879Z,0.97
2023-03-21T08:09:12.094Z,1.00
2023-03-21T08:11:15.902Z,1.00
2023-03-21T08:13:19.765Z,0.63
2023-03-21T08:15:23.361Z,0.80
2023-03-21T08:17:27.270Z,0.70
2023-03-21T08:19:31.206Z,0.50
2023-03-21T08:21:34.764Z,0.53
2023-03-21T08:23:38.372Z,0.60
2023-03-21T08:25:43.502Z,0.70
2023-03-21T08:27:48.555Z,0.67
2023-03-21T08:29:52.231Z,0.50
2023-03-21T08:31:56.077Z,0.63
2023-03-21T08:33:59.740Z,0.40
2023-03-21T08:36:03.762Z,0.63
2023-03-21T08:38:08.592Z,0.47
2023-03-21T08:40:13.738Z,0.33
2023-03-21T08:42:18.933Z,0.50
2023-03-21T08:44:22.659Z,0.60
2023-03-21T08:46:26.605Z,0.53
2023-03-21T08:48:30.348Z,0.90
2023-03-21T08:50:34.036Z,0.50
2023-03-21T08:52:37.859Z,0.40
2023-03-21T08:54:41.952Z,0.93
2023-03-21T08:56:45.672Z,0.90
2023-03-21T08:58:50.839Z,0.60
2023-03-21T09:00:54.382Z,0.70
2023-03-21T09:02:59.052Z,0.60
2023-03-21T09:05:02.630Z,0.60
2023-03-21T09:07:06.501Z,0.60
2023-03-21T09:09:10.709Z,0.50
2023-03-21T09:11:14.231Z,0.70
2023-03-21T09:13:17.825Z,0.80
2023-03-21T09:15:24.612Z,0.70
2023-03-21T09:17:28.288Z,0.40
2023-03-21T09:19:31.937Z,0.73
2023-03-21T09:21:36.508Z,0.50
2023-03-21T09:23:41.018Z,0.70
2023-03-21T09:25:46.969Z,0.93
2023-03-21T09:27:51.592Z,0.87
2023-03-21T09:29:55.846Z,0.80
2023-03-21T09:32:01.854Z,0.60
2023-03-21T09:34:06.194Z,0.60
2023-03-21T09:36:15.185Z,0.70
2023-03-21T09:38:18.734Z,0.60
2023-03-21T09:40:25.611Z,0.60
2023-03-21T09:42:33.149Z,0.87
2023-03-21T09:44:45.358Z,0.60
2023-03-21T09:46:52.931Z,0.50
2023-03-21T09:49:00.345Z,0.50
2023-03-21T09:51:04.945Z,0.60
2023-03-21T09:53:12.546Z,0.70
2023-03-21T09:55:20.101Z,0.50
2023-03-21T09:57:28.534Z,0.77
2023-03-21T09:59:35.851Z,1.00
2023-03-21T10:01:45.725Z,1.13
2023-03-21T10:03:50.495Z,0.57
2023-03-21T10:05:58.775Z,0.73
2023-03-21T10:08:04.874Z,0.73
2023-03-21T10:10:09.465Z,0.70
2023-03-21T10:12:16.805Z,0.60
2023-03-21T10:14:22.814Z,0.60
2023-03-21T10:16:28.976Z,0.57
2023-03-21T10:18:33.893Z,0.60
2023-03-21T10:20:39.781Z,0.70
2023-03-21T10:22:46.119Z,0.60
2023-03-21T10:24:49.877Z,0.57
2023-03-21T10:26:54.429Z,0.50
2023-03-21T10:28:59.894Z,0.60
2023-03-21T10:31:05.624Z,0.60
2023-03-21T10:33:10.679Z,0.60
2023-03-21T10:35:15.274Z,1.03
2023-03-21T10:37:19.292Z,0.50
2023-03-21T10:39:27.451Z,0.70
2023-03-21T10:41:31.046Z,0.70
2023-03-21T10:43:40.881Z,0.70
2023-03-21T10:45:47.384Z,0.60
2023-03-21T10:47:51.951Z,0.60
2023-03-21T10:50:07.252Z,0.60
2023-03-21T10:52:13.417Z,0.60
2023-03-21T10:54:20.331Z,1.00
2023-03-21T10:56:28.848Z,0.77
2023-03-21T10:58:34.807Z,0.53
2023-03-21T11:00:41.463Z,1.00
2023-03-21T11:02:45.451Z,0.50
2023-03-21T11:04:53.346Z,0.70
2023-03-21T11:06:58.449Z,0.90
2023-03-21T11:09:05.072Z,1.70
2023-03-21T11:11:13.825Z,0.97
2023-03-21T11:13:22.082Z,0.50
2023-03-21T11:15:30.869Z,0.60
2023-03-21T11:17:36.870Z,0.40
2023-03-21T11:19:40.823Z,0.60
2023-03-21T11:21:44.692Z,1.10
2023-03-21T11:23:49.898Z,0.63
2023-03-21T11:25:54.001Z,0.70
2023-03-21T11:27:58.767Z,0.70
2023-03-21T11:30:05.241Z,1.00
2023-03-21T11:32:12.633Z,0.70
2023-03-21T11:34:26.512Z,0.80
2023-03-21T11:36:35.214Z,0.90
2023-03-21T11:38:41.390Z,0.77
2023-03-21T11:40:54.695Z,0.60
2023-03-21T11:42:58.860Z,0.87
2023-03-21T11:45:06.571Z,0.80
2023-03-21T11:47:10.944Z,0.50
2023-03-21T11:49:14.494Z,1.00
2023-03-21T11:51:23.689Z,0.80
2023-03-21T11:53:33.063Z,0.70
2023-03-21T11:55:43.351Z,0.70
2023-03-21T11:57:53.398Z,0.70
2023-03-21T12:00:00.777Z,0.60
2023-03-21T12:02:17.737Z,1.03
2023-03-21T12:04:33.267Z,0.50
2023-03-21T12:06:39.419Z,0.60
2023-03-21T12:08:47.640Z,0.70
2023-03-21T12:10:55.919Z,0.83
2023-03-21T12:13:05.738Z,0.50
2023-03-21T12:15:15.026Z,0.70
2023-03-21T12:17:27.271Z,0.63
2023-03-21T12:19:45.241Z,0.50
2023-03-21T12:21:55.199Z,0.50
2023-03-21T12:24:03.237Z,0.70
2023-03-21T12:26:23.289Z,0.50
2023-03-21T12:28:33.512Z,0.50
2023-03-21T12:30:45.123Z,0.60
2023-03-21T12:32:54.182Z,0.50
2023-03-21T12:35:10.439Z,0.80
2023-03-21T12:37:20.836Z,0.77
2023-03-21T12:39:29.401Z,0.63
2023-03-21T12:41:35.861Z,1.07
2023-03-21T12:43:43.453Z,0.80
2023-03-21T12:45:48.200Z,0.60
2023-03-21T12:47:56.245Z,0.63
2023-03-21T12:50:02.657Z,1.00
2023-03-21T12:52:08.080Z,0.60
2023-03-21T12:54:17.714Z,1.00
2023-03-21T12:56:23.723Z,1.33
2023-03-21T12:58:28.395Z,0.60
2023-03-21T13:00:36.438Z,0.70
2023-03-21T13:02:41.224Z,0.70
2023-03-21T13:04:49.522Z,0.60
2023-03-21T13:06:54.626Z,0.80
2023-03-21T13:09:00.418Z,0.70
2023-03-21T13:11:04.636Z,0.90
2023-03-21T13:13:10.949Z,0.60
2023-03-21T13:15:29.450Z,0.60
2023-03-21T13:17:37.230Z,0.60
2023-03-21T13:19:43.255Z,0.70
2023-03-21T13:21:52.827Z,0.87
2023-03-21T13:24:03.693Z,0.80
2023-03-21T13:26:11.252Z,0.80
2023-03-21T13:28:19.949Z,0.97
2023-03-21T13:30:26.304Z,0.83
2023-03-21T13:32:31.745Z,0.63
2023-03-21T13:34:35.831Z,0.70
2023-03-21T13:36:41.987Z,0.60
2023-03-21T13:38:51.728Z,0.60
2023-03-21T13:41:00.826Z,0.87
2023-03-21T13:43:04.640Z,1.07
2023-03-21T13:45:11.857Z,1.07
2023-03-21T13:47:37.777Z,0.80
2023-03-21T13:49:41.433Z,0.93
2023-03-21T13:51:52.607Z,0.70
2023-03-21T13:54:03.268Z,0.83
2023-03-21T13:56:25.917Z,0.90
2023-03-21T13:58:36.864Z,0.60
2023-03-21T14:00:43.653Z,0.87
2023-03-21T14:02:55.561Z,0.70
2023-03-21T14:05:05.624Z,0.70
2023-03-21T14:07:12.092Z,0.90
2023-03-21T14:09:20.519Z,0.97
2023-03-21T14:11:24.316Z,0.80
2023-03-21T14:13:29.662Z,1.20
2023-03-21T14:15:40.793Z,1.03
2023-03-21T14:17:54.863Z,0.90
2023-03-21T14:19:59.473Z,1.40
2023-03-21T14:22:05.081Z,1.20
2023-03-21T14:24:09.881Z,0.70
2023-03-21T14:26:15.488Z,1.00
2023-03-21T14:28:20.806Z,0.80
2023-03-21T14:30:26.594Z,1.23
2023-03-21T14:32:31.499Z,0.93
2023-03-21T14:34:36.987Z,1.00
2023-03-21T14:36:45.748Z,1.40
2023-03-21T14:38:57.746Z,1.00
2023-03-21T14:41:01.457Z,1.00
2023-03-21T14:43:08.307Z,1.10
2023-03-21T14:45:20.676Z,0.93
2023-03-21T14:47:26.118Z,1.03
2023-03-21T14:49:30.771Z,0.90
2023-03-21T14:51:34.332Z,1.10
2023-03-21T14:53:40.233Z,1.17
2023-03-21T14:55:44.501Z,0.90
2023-03-21T14:57:48.153Z,1.20
2023-03-21T14:59:54.934Z,1.53
2023-03-21T15:01:59.463Z,0.90
2023-03-21T15:04:06.533Z,0.73
2023-03-21T15:06:14.206Z,1.40
2023-03-21T15:08:18.958Z,1.17
2023-03-21T15:10:24.076Z,0.80
2023-03-21T15:12:27.788Z,1.23
2023-03-21T15:14:33.420Z,1.07
2023-03-21T15:16:39.286Z,1.40
2023-03-21T15:18:43.568Z,1.10
2023-03-21T15:20:48.398Z,1.13
2023-03-21T15:22:53.632Z,1.37
2023-03-21T15:25:01.049Z,0.87
2023-03-21T15:27:05.984Z,1.00
2023-03-21T15:29:09.742Z,0.90
2023-03-21T15:31:16.890Z,2.27
2023-03-21T15:33:22.475Z,0.73
2023-03-21T15:35:28.550Z,1.20
2023-03-21T15:37:36.548Z,1.03
2023-03-21T15:39:40.279Z,1.10
2023-03-21T15:41:44.239Z,0.80
2023-03-21T15:43:49.268Z,1.13
2023-03-21T15:45:57.008Z,1.73
2023-03-21T15:48:02.368Z,1.10
2023-03-21T15:50:11.545Z,1.10
2023-03-21T15:52:16.167Z,1.10
2023-03-21T15:54:24.761Z,1.30
2023-03-21T15:56:34.818Z,0.90
2023-03-21T15:58:41.577Z,0.93
2023-03-21T16:00:46.339Z,1.20
2023-03-21T16:02:50.910Z,0.83
2023-03-21T16:04:58.534Z,1.33
2023-03-21T16:07:05.277Z,1.00
2023-03-21T16:09:12.664Z,1.10
2023-03-21T16:11:18.724Z,0.83
2023-03-21T16:13:22.434Z,1.40
2023-03-21T16:15:26.732Z,1.30
2023-03-21T16:17:34.268Z,1.13
2023-03-21T16:19:37.928Z,1.33
2023-03-21T16:21:42.378Z,1.13
2023-03-21T16:23:47.627Z,1.00
2023-03-21T16:25:56.037Z,1.20
2023-03-21T16:27:59.926Z,1.07
2023-03-21T16:30:08.385Z,1.30
2023-03-21T16:32:14.859Z,1.37
2023-03-21T16:34:18.515Z,1.07
2023-03-21T16:36:22.786Z,1.50
2023-03-21T16:38:26.681Z,1.97
2023-03-21T16:40:34.299Z,1.00
2023-03-21T16:42:39.026Z,1.20
2023-03-21T16:44:42.651Z,1.13
2023-03-21T16:46:47.152Z,1.40
2023-03-21T16:48:53.267Z,1.13
2023-03-21T16:50:56.764Z,1.10
2023-03-21T16:53:00.904Z,1.00
2023-03-21T16:55:04.482Z,1.10
2023-03-21T16:57:10.889Z,1.17
2023-03-21T16:59:14.830Z,1.10
2023-03-21T17:01:20.649Z,1.60
2023-03-21T17:03:24.642Z,1.73
2023-03-21T17:05:31.005Z,1.80
2023-03-21T17:07:34.677Z,2.13
2023-03-21T17:09:38.377Z,4.10
2023-03-21T17:11:42.700Z,4.07
2023-03-21T17:13:47.915Z,4.20
2023-03-21T17:15:51.716Z,4.40
2023-03-21T17:17:56.253Z,2.67
2023-03-21T17:19:59.813Z,2.53
2023-03-21T17:22:03.721Z,2.17
2023-03-21T17:24:07.729Z,1.90
2023-03-21T17:26:11.840Z,2.67
2023-03-21T17:28:15.842Z,1.20
2023-03-21T17:30:24.046Z,1.20
2023-03-21T17:32:27.863Z,1.70
2023-03-21T17:34:31.667Z,1.47
2023-03-21T17:36:36.580Z,1.47
2023-03-21T17:38:40.384Z,1.50
2023-03-21T17:40:44.281Z,1.53
2023-03-21T17:42:48.009Z,1.33
2023-03-21T17:44:51.702Z,1.60
2023-03-21T17:46:56.737Z,2.20
2023-03-21T17:49:00.750Z,2.10
2023-03-21T17:51:04.528Z,2.00
2023-03-21T17:53:08.654Z,2.17
2023-03-21T17:55:12.769Z,2.50
2023-03-21T17:57:16.393Z,1.97
2023-03-21T17:59:19.937Z,1.77
2023-03-21T18:01:24.517Z,2.57
2023-03-21T18:03:29.540Z,3.10
2023-03-21T18:05:33.845Z,4.07
2023-03-21T18:08:08.117Z,5.43
2023-03-21T18:10:01.786Z,4.83
2023-03-21T18:12:05.384Z,5.23
2023-03-21T18:14:17.268Z,4.93
2023-03-21T18:16:23.260Z,4.80
2023-03-21T18:18:27.540Z,4.17
2023-03-21T18:22:56.990Z,4.00
2023-03-21T18:25:00.593Z,2.50
2023-03-21T18:27:04.284Z,2.03
2023-03-21T18:31:31.928Z,1.70
2023-03-21T18:33:35.831Z,3.00
2023-03-21T18:35:41.018Z,4.80
2023-03-21T18:37:44.638Z,12.20
2023-03-21T18:39:48.641Z,8.97
2023-03-21T18:41:55.787Z,8.07
2023-03-21T18:44:09.075Z,4.60
2023-03-21T18:46:18.636Z,4.10
2023-03-21T18:48:22.682Z,4.30
2023-03-21T18:50:26.361Z,3.22
2023-03-21T18:52:31.762Z,3.37
2023-03-21T18:54:35.871Z,2.73
2023-03-21T18:59:03.572Z,2.70
2023-03-21T19:01:08.055Z,2.37
2023-03-21T19:03:26.201Z,3.77
2023-03-21T19:05:38.121Z,3.20
2023-03-21T19:07:43.231Z,3.70
2023-03-21T19:10:05.870Z,2.00
2023-03-21T19:12:14.173Z,2.97
2023-03-21T19:14:18.861Z,2.55
2023-03-21T19:16:26.900Z,1.77
2023-03-21T19:18:52.104Z,1.95
2023-03-21T19:21:00.125Z,1.42
2023-03-21T19:23:08.690Z,1.30
2023-03-21T19:25:14.494Z,1.30
2023-03-21T19:27:18.792Z,2.00
2023-03-21T19:29:22.381Z,1.55
2023-03-21T19:31:26.890Z,1.20
2023-03-21T19:33:30.900Z,1.40
2023-03-21T19:35:37.323Z,2.00
2023-03-21T19:37:41.792Z,1.40
2023-03-21T19:39:47.017Z,1.97
2023-03-21T19:41:50.760Z,1.35
2023-03-21T19:43:56.466Z,2.10
2023-03-21T19:46:00.814Z,1.83
2023-03-21T19:48:04.621Z,2.75
2023-03-21T19:50:47.207Z,6.32
2023-03-21T19:52:34.402Z,4.10
2023-03-21T19:54:38.205Z,3.33
2023-03-21T19:56:47.477Z,2.90
2023-03-21T19:58:55.162Z,2.67
2023-03-21T20:00:58.890Z,1.83
2023-03-21T20:03:02.763Z,3.10
2023-03-21T20:05:06.861Z,18.02
2023-03-21T20:07:10.469Z,10.68
2023-03-21T20:11:38.585Z,13.63
2023-03-21T20:13:43.714Z,13.27
2023-03-21T20:15:48.263Z,4.90
2023-03-21T20:17:52.005Z,4.63
2023-03-21T20:19:57.981Z,4.07
2023-03-21T20:22:02.871Z,5.55
2023-03-21T20:24:07.123Z,5.57
2023-03-21T20:26:11.439Z,7.75
2023-03-21T20:28:23.888Z,8.75
2023-03-21T20:30:30.508Z,6.22
2023-03-21T20:32:34.198Z,3.60
2023-03-21T20:34:38.363Z,3.55
2023-03-21T20:36:43.674Z,2.95
2023-03-21T20:38:47.399Z,2.40
2023-03-21T20:40:51.000Z,3.40
2023-03-21T20:42:56.179Z,3.28
2023-03-21T20:45:03.683Z,2.70
2023-03-21T20:47:09.430Z,2.60
2023-03-21T20:49:13.994Z,2.35
2023-03-21T20:52:26.897Z,2.35
2023-03-21T20:53:41.918Z,1.95
2023-03-21T20:55:46.132Z,1.88
2023-03-21T20:57:50.991Z,1.70
2023-03-21T20:59:54.861Z,1.42
2023-03-21T21:01:58.993Z,1.90
2023-03-21T21:04:05.660Z,3.00
2023-03-21T21:06:13.019Z,2.10
2023-03-21T21:08:19.391Z,1.42
2023-03-21T21:10:23.122Z,1.73
2023-03-21T21:12:28.688Z,1.50
2023-03-21T21:14:32.406Z,2.53
2023-03-21T21:16:37.224Z,2.17
2023-03-21T21:18:41.119Z,3.92
2023-03-21T21:20:46.249Z,4.05
2023-03-21T21:22:59.528Z,3.58
2023-03-21T21:25:04.153Z,3.13
2023-03-21T21:27:08.416Z,2.20
2023-03-21T21:29:12.363Z,2.40
2023-03-21T21:31:16.994Z,2.55
2023-03-21T21:33:21.400Z,2.70
2023-03-21T21:35:24.978Z,1.85
2023-03-21T21:37:34.001Z,2.10
2023-03-21T21:39:38.083Z,2.35
2023-03-21T21:41:42.504Z,2.30
2023-03-21T21:43:46.402Z,1.65
2023-03-21T21:45:51.032Z,2.60
2023-03-21T21:47:54.833Z,2.10
2023-03-21T21:49:58.975Z,2.75
2023-03-21T21:52:06.078Z,2.15
2023-03-21T21:54:11.149Z,2.30
2023-03-21T21:56:15.292Z,2.92
2023-03-21T21:58:21.117Z,1.90
2023-03-21T22:00:24.841Z,2.13
2023-03-21T22:02:28.648Z,2.92
2023-03-21T22:04:32.674Z,2.83
2023-03-21T22:06:36.957Z,2.30
2023-03-21T22:08:47.170Z,2.17
2023-03-21T22:10:52.149Z,2.50
2023-03-21T22:12:55.909Z,2.30
2023-03-21T22:14:59.558Z,2.45
2023-03-21T22:17:03.829Z,2.05
2023-03-21T22:19:07.423Z,2.20
2023-03-21T22:21:11.375Z,2.83
2023-03-21T22:23:15.081Z,1.98
2023-03-21T22:25:19.336Z,2.30
2023-03-21T22:27:24.698Z,2.58
2023-03-21T22:29:28.354Z,1.95
2023-03-21T22:31:32.353Z,2.05
2023-03-21T22:33:36.003Z,2.60
2023-03-21T22:35:39.650Z,2.00
2023-03-21T22:37:43.925Z,1.98
2023-03-21T22:39:47.497Z,1.80
2023-03-21T22:41:51.228Z,2.40
2023-03-21T22:43:56.611Z,2.22
2023-03-21T22:46:00.712Z,1.88
2023-03-21T22:48:07.764Z,2.40
2023-03-21T22:50:12.262Z,1.85
2023-03-21T22:52:16.224Z,1.95
2023-03-21T22:54:20.114Z,2.00
2023-03-21T22:56:23.786Z,2.22
2023-03-21T22:58:27.477Z,1.50
2023-03-21T23:00:32.630Z,2.20
2023-03-21T23:02:36.281Z,1.95
2023-03-21T23:04:39.944Z,1.30
2023-03-21T23:06:43.861Z,1.60
2023-03-21T23:08:47.535Z,1.40
2023-03-21T23:10:51.176Z,1.60
2023-03-21T23:12:54.997Z,1.35
2023-03-21T23:14:58.623Z,2.15
2023-03-21T23:17:03.678Z,1.83
2023-03-21T23:19:08.243Z,1.83
2023-03-21T23:21:13.464Z,1.73
2023-03-21T23:23:17.669Z,1.98
2023-03-21T23:25:21.534Z,1.75
2023-03-21T23:27:25.205Z,1.80
2023-03-21T23:29:28.906Z,1.73
2023-03-21T23:31:33.248Z,2.72
2023-03-21T23:33:38.229Z,1.45
2023-03-21T23:35:42.692Z,1.67
2023-03-21T23:37:50.267Z,1.73
2023-03-21T23:39:55.320Z,1.88
2023-03-21T23:42:00.298Z,1.80
2023-03-21T23:44:04.207Z,1.55
2023-03-21T23:46:08.670Z,1.70
2023-03-21T23:48:12.391Z,1.60
2023-03-21T23:50:17.564Z,1.55
2023-03-21T23:52:21.689Z,1.40
2023-03-21T23:54:25.365Z,1.63
2023-03-21T23:56:29.389Z,1.90
2023-03-21T23:58:33.178Z,1.60
